Archival Weather

Chicago O'Hare International

Chicago, Illinois (KORD)

Report from: Sunday, February 5, 2023 5:51 PM CST
Current time: Wednesday, April 24, 2024 2:07 PM CDT

Current weather – Weather history – Daily summaries
Weather forecast

Temperature2.2°C (36.0°F)
Wind chill-1.3°C (29.6°F)
Dew point-3.3°C (26.1°F)
Winds 7 kts (3.6 m/s, 8.1 mph) Northwest (310°)
Visibility10 mi. (16.1 km)
Clouds Sky clear
Altimeter30.03 in.Hg (1017 mB)
Relative humidity67 %
Density altitude-1,623 ft. (-495 m)
Sea-level pressure101.7 kPa (1017 mB, 30.04 in.Hg)
Max temp last 6 hours5.0°C (41.0°F)
Min temp last 6 hours2.2°C (36.0°F)
Remarks System requires maintenance
Automated weather observing station with precipitation discriminator
Pressure rising more slowly
Flight conditions Visual Meteorological Conditions
Raw dataKORD 052351Z 31007KT 10SM CLR 02/M03 A3003 RMK AO2 SLP174 T00221033 10050 20022 51037 $
An error has occurred. This application may no longer respond until reloaded. Reload 🗙